Time;durP1;ratioP1;P1;durP2;ratioP2;P2;SDS_P1;SDS_P2;PMS_P1;PMS_P2;Temp;Humidity;BMP_temperature;BMP_pressure;BME280_temperature;BME280_humidity;BME280_pressure;Samples;Min_cycle;Max_cycle;Signal;HPM_P1;HPM_P2
2023/05/10 00:02:26;;;;;;;115.43;35.20;;;14.70;99.90;;;;;;6262682;22;20424;-93
2023/05/10 00:04:52;;;;;;;86.07;35.08;;;14.70;99.90;;;;;;6313585;22;20010;-93
2023/05/10 00:07:18;;;;;;;79.38;35.15;;;14.70;99.90;;;;;;6313477;22;20128;-91
2023/05/10 00:09:44;;;;;;;110.97;38.38;;;14.70;99.90;;;;;;6287986;22;20006;-92
2023/05/10 00:12:10;;;;;;;103.07;37.95;;;14.70;99.90;;;;;;6261981;22;20014;-92
2023/05/10 00:14:35;;;;;;;123.07;41.58;;;14.70;99.90;;;;;;6312899;22;20338;-92
2023/05/10 00:17:02;;;;;;;102.30;38.33;;;14.70;99.90;;;;;;6287918;22;20375;-92
2023/05/10 00:19:28;;;;;;;116.35;42.50;;;14.70;99.90;;;;;;6317299;22;19999;-92
2023/05/10 00:21:54;;;;;;;100.18;42.75;;;14.60;99.90;;;;;;6296376;22;20057;-92
2023/05/10 00:24:20;;;;;;;87.00;37.22;;;14.60;99.90;;;;;;6295083;22;20007;-94
2023/05/10 00:26:45;;;;;;;101.57;39.30;;;14.60;99.90;;;;;;6321123;22;20007;-94
2023/05/10 00:29:14;;;;;;;119.18;42.00;;;14.60;99.90;;;;;;6320841;22;20003;-93
2023/05/10 00:31:39;;;;;;;102.53;41.75;;;14.60;99.90;;;;;;6318821;22;20010;-94
2023/05/10 00:34:05;;;;;;;109.03;41.65;;;14.60;99.90;;;;;;6318432;22;20007;-93
2023/05/10 00:37:08;;;;;;;103.55;41.08;;;14.60;99.90;;;;;;6290161;22;20028;-92
2023/05/10 00:39:34;;;;;;;99.47;40.28;;;14.60;99.90;;;;;;6279716;22;20123;-92
2023/05/10 00:42:05;;;;;;;102.10;40.28;;;14.60;99.90;;;;;;6255463;22;20000;-92
2023/05/10 00:44:31;;;;;;;92.43;38.63;;;14.60;99.90;;;;;;6259241;22;20027;-93
2023/05/10 00:46:58;;;;;;;140.88;42.85;;;14.60;99.90;;;;;;6308337;22;20082;-91
2023/05/10 00:49:34;;;;;;;102.53;42.47;;;14.60;99.90;;;;;;6259527;22;20012;-93
2023/05/10 00:52:03;;;;;;;121.45;43.28;;;14.60;99.90;;;;;;6308900;22;20054;-94
2023/05/10 00:54:35;;;;;;;108.20;44.30;;;14.60;99.90;;;;;;6310125;22;20008;-92
2023/05/10 00:57:01;;;;;;;126.07;43.25;;;14.60;99.90;;;;;;6310071;22;20004;-93
2023/05/10 00:59:27;;;;;;;107.60;43.05;;;14.60;99.90;;;;;;6308353;22;20011;-91
2023/05/10 01:01:53;;;;;;;93.65;40.67;;;14.60;99.90;;;;;;6254370;22;20011;-93
2023/05/10 01:04:21;;;;;;;100.70;41.35;;;14.60;99.90;;;;;;6306722;22;20003;-93
2023/05/10 01:06:50;;;;;;;102.95;41.58;;;14.60;99.90;;;;;;6254376;22;20008;-92
2023/05/10 01:09:16;;;;;;;117.65;44.75;;;14.60;99.90;;;;;;6282391;22;20011;-92
2023/05/10 01:11:42;;;;;;;122.55;45.40;;;14.60;99.90;;;;;;6254051;22;20096;-94
2023/05/10 01:14:13;;;;;;;117.47;42.45;;;14.60;99.90;;;;;;6306341;22;20004;-94
2023/05/10 01:16:41;;;;;;;139.48;44.88;;;14.60;99.90;;;;;;6306719;22;20000;-93
2023/05/10 01:19:15;;;;;;;160.60;45.78;;;14.60;99.90;;;;;;6304805;22;20006;-94
2023/05/10 01:22:08;;;;;;;115.60;46.17;;;14.60;99.90;;;;;;6305964;22;20007;-93
2023/05/10 01:25:11;;;;;;;123.20;45.25;;;14.60;99.90;;;;;;6306566;22;19999;-93
2023/05/10 01:27:58;;;;;;;125.60;42.85;;;14.60;99.90;;;;;;6306570;22;20429;-95
2023/05/10 01:30:58;;;;;;;103.78;41.28;;;14.60;99.90;;;;;;6279873;22;20053;-94
2023/05/10 01:33:55;;;;;;;113.05;42.47;;;14.60;99.90;;;;;;6279021;22;20049;-94
2023/05/10 01:36:31;;;;;;;115.03;39.97;;;14.60;99.90;;;;;;6281464;22;20008;-93
2023/05/10 01:39:17;;;;;;;144.52;41.15;;;14.60;99.90;;;;;;6288606;22;20104;-94
2023/05/10 01:41:51;;;;;;;107.93;38.95;;;14.60;99.90;;;;;;6280629;22;20003;-93
2023/05/10 01:44:37;;;;;;;124.55;40.72;;;14.60;99.90;;;;;;6281242;22;20045;-94
2023/05/10 01:47:10;;;;;;;104.57;35.85;;;14.60;99.90;;;;;;6281428;22;20000;-93
2023/05/10 01:49:55;;;;;;;116.47;37.80;;;14.70;99.90;;;;;;6251529;23;20024;-93
2023/05/10 01:52:30;;;;;;;111.47;35.70;;;14.70;99.90;;;;;;6254409;22;20058;-94
2023/05/10 01:55:05;;;;;;;102.93;37.03;;;14.70;99.90;;;;;;6282687;22;19999;-95
2023/05/10 01:57:36;;;;;;;106.65;37.35;;;14.60;99.90;;;;;;6286300;22;20085;-94
2023/05/10 02:00:04;;;;;;;115.78;36.40;;;14.60;99.90;;;;;;6284827;22;20303;-94
2023/05/10 02:02:33;;;;;;;105.75;36.92;;;14.60;99.90;;;;;;6282287;22;20062;-94
2023/05/10 02:04:59;;;;;;;122.53;35.88;;;14.60;99.90;;;;;;6281815;22;20010;-94
2023/05/10 02:07:28;;;;;;;119.88;37.67;;;14.60;99.90;;;;;;6279260;22;20335;-95
2023/05/10 02:09:55;;;;;;;112.45;38.25;;;14.60;99.90;;;;;;6279068;22;20004;-94
2023/05/10 02:12:23;;;;;;;115.72;37.05;;;14.50;99.90;;;;;;6279274;22;20008;-92
2023/05/10 02:14:51;;;;;;;119.97;37.97;;;14.50;99.90;;;;;;6283444;22;20004;-96
2023/05/10 02:17:18;;;;;;;143.23;38.30;;;14.50;99.90;;;;;;6280780;22;20384;-92
2023/05/10 02:19:47;;;;;;;126.40;36.13;;;14.50;99.90;;;;;;6281557;22;20003;-94
2023/05/10 02:22:16;;;;;;;141.85;39.40;;;14.50;99.90;;;;;;6279734;22;20326;-94
2023/05/10 02:24:43;;;;;;;130.00;38.05;;;14.50;99.90;;;;;;6229775;22;20008;-94
2023/05/10 02:27:10;;;;;;;126.57;36.47;;;14.50;99.90;;;;;;6279009;22;20027;-94
2023/05/10 02:29:37;;;;;;;116.78;38.15;;;14.50;99.90;;;;;;6253550;22;20312;-94
2023/05/10 02:32:03;;;;;;;121.18;37.95;;;14.50;99.90;;;;;;6252340;22;20439;-93
2023/05/10 02:34:31;;;;;;;118.85;38.22;;;14.50;99.90;;;;;;6251981;22;20434;-94
2023/05/10 02:36:58;;;;;;;138.45;41.38;;;14.50;99.90;;;;;;6252775;22;20004;-94
2023/05/10 02:39:26;;;;;;;127.15;41.78;;;14.40;99.90;;;;;;6277723;22;20007;-94
2023/05/10 02:41:56;;;;;;;126.10;39.15;;;14.40;99.90;;;;;;6278203;22;19995;-92
2023/05/10 02:44:24;;;;;;;134.93;42.13;;;14.40;99.90;;;;;;6228727;22;20521;-93
2023/05/10 02:46:51;;;;;;;166.45;40.95;;;14.40;99.90;;;;;;6278098;22;20630;-93
2023/05/10 02:49:16;;;;;;;134.75;43.58;;;14.40;99.90;;;;;;6253766;22;20008;-93
2023/05/10 02:51:50;;;;;;;129.00;42.90;;;14.40;99.90;;;;;;6279308;22;20007;-94
2023/05/10 02:54:21;;;;;;;149.65;46.20;;;14.40;99.90;;;;;;6279564;22;20034;-93
2023/05/10 02:56:56;;;;;;;159.13;48.65;;;14.40;99.90;;;;;;6279800;22;19995;-93
2023/05/10 02:59:22;;;;;;;145.65;49.40;;;14.30;99.90;;;;;;6277401;22;19999;-92
2023/05/10 03:01:48;;;;;;;134.75;44.08;;;14.30;99.90;;;;;;6253271;22;20004;-92
2023/05/10 03:04:13;;;;;;;114.68;44.42;;;14.30;99.90;;;;;;6252362;22;20030;-91
2023/05/10 03:06:40;;;;;;;105.82;42.58;;;14.30;99.90;;;;;;6261512;22;20014;-92
2023/05/10 03:09:09;;;;;;;131.27;45.40;;;14.20;99.90;;;;;;6261881;22;20427;-93
2023/05/10 03:11:49;;;;;;;133.70;45.05;;;14.20;99.90;;;;;;6291402;22;20000;-92
2023/05/10 03:14:44;;;;;;;126.18;46.45;;;14.20;99.90;;;;;;6295504;22;19999;-92
2023/05/10 03:17:23;;;;;;;134.85;46.72;;;14.10;99.90;;;;;;6289863;22;20007;-94
2023/05/10 03:19:57;;;;;;;120.28;45.47;;;14.10;99.90;;;;;;6281071;22;20003;-94
2023/05/10 03:22:45;;;;;;;133.48;47.40;;;14.00;99.90;;;;;;6279813;22;20417;-90
2023/05/10 03:25:12;;;;;;;116.68;43.78;;;14.10;99.90;;;;;;6283914;22;20035;-90
2023/05/10 03:27:41;;;;;;;118.50;45.92;;;14.00;99.90;;;;;;6258064;22;20327;-91
2023/05/10 03:30:12;;;;;;;138.00;47.22;;;14.00;99.90;;;;;;6279396;22;20004;-93
2023/05/10 03:32:38;;;;;;;122.60;47.30;;;14.00;99.90;;;;;;6252717;22;20099;-91
2023/05/10 03:35:12;;;;;;;133.35;47.78;;;14.00;99.90;;;;;;6279525;22;20003;-91
2023/05/10 03:37:37;;;;;;;133.27;47.30;;;14.00;99.90;;;;;;6280672;22;20061;-90
2023/05/10 03:40:04;;;;;;;150.43;47.78;;;14.00;99.90;;;;;;6253695;22;19999;-92
2023/05/10 03:42:30;;;;;;;125.00;44.70;;;14.00;99.90;;;;;;6255462;22;20077;-94
2023/05/10 03:44:56;;;;;;;132.15;47.00;;;14.00;99.90;;;;;;6228501;22;20011;-93
2023/05/10 03:47:21;;;;;;;135.73;45.60;;;14.00;99.90;;;;;;6252975;22;20015;-93
2023/05/10 03:49:50;;;;;;;136.82;46.60;;;14.00;99.90;;;;;;6255827;22;20423;-92
2023/05/10 03:52:16;;;;;;;137.20;46.88;;;14.00;99.90;;;;;;6253258;22;20011;-94
2023/05/10 03:54:42;;;;;;;132.65;46.47;;;14.00;99.90;;;;;;6278287;22;20004;-94
2023/05/10 03:57:08;;;;;;;127.38;45.08;;;14.00;99.90;;;;;;6252791;22;20078;-92
2023/05/10 03:59:33;;;;;;;132.00;44.78;;;14.00;99.90;;;;;;6227785;22;20007;-92
2023/05/10 04:01:59;;;;;;;126.85;45.70;;;14.00;99.90;;;;;;6226909;22;20011;-92
2023/05/10 04:04:25;;;;;;;135.57;46.85;;;14.00;99.90;;;;;;6252969;22;20065;-92
2023/05/10 04:06:51;;;;;;;122.57;44.92;;;14.00;99.90;;;;;;6278218;22;20003;-91
2023/05/10 04:09:17;;;;;;;117.68;42.15;;;14.10;99.90;;;;;;6252563;22;20434;-91
2023/05/10 04:11:43;;;;;;;129.13;44.33;;;14.10;99.90;;;;;;6280110;22;20089;-91
2023/05/10 04:14:09;;;;;;;118.00;42.03;;;14.10;99.90;;;;;;6280609;22;20014;-93
2023/05/10 04:16:34;;;;;;;109.65;41.20;;;14.00;99.90;;;;;;6287372;22;20032;-92
2023/05/10 04:19:00;;;;;;;108.57;41.35;;;14.10;99.90;;;;;;6276607;22;20004;-93
2023/05/10 04:21:30;;;;;;;113.93;40.25;;;14.10;99.90;;;;;;6271556;22;20000;-92
2023/05/10 04:23:55;;;;;;;129.63;41.30;;;14.10;99.90;;;;;;6269394;22;20004;-92
2023/05/10 04:26:22;;;;;;;111.85;39.08;;;14.10;99.90;;;;;;6262531;22;20312;-93
2023/05/10 04:28:47;;;;;;;115.82;39.30;;;14.10;99.90;;;;;;6285657;22;20004;-93
2023/05/10 04:31:13;;;;;;;124.88;38.97;;;14.10;99.90;;;;;;6282278;22;20000;-93
2023/05/10 04:33:39;;;;;;;103.60;36.30;;;14.10;99.90;;;;;;6282789;22;19999;-95
2023/05/10 04:36:05;;;;;;;121.47;39.83;;;14.10;99.90;;;;;;6282514;22;20003;-92
2023/05/10 04:38:31;;;;;;;109.15;38.53;;;14.10;99.90;;;;;;6285318;22;20438;-90
2023/05/10 04:41:05;;;;;;;115.85;39.13;;;14.10;99.90;;;;;;6254816;22;20000;-92
2023/05/10 04:43:31;;;;;;;122.43;39.03;;;14.10;99.90;;;;;;6254008;22;20011;-90
2023/05/10 04:45:57;;;;;;;119.95;40.80;;;14.10;99.90;;;;;;6254648;22;20008;-94
2023/05/10 04:48:25;;;;;;;129.57;40.00;;;14.10;99.90;;;;;;6255212;22;20012;-95
2023/05/10 04:50:51;;;;;;;151.75;41.65;;;14.00;99.90;;;;;;6230237;22;20012;-93
2023/05/10 04:53:19;;;;;;;133.10;42.80;;;14.10;99.90;;;;;;6230712;22;20031;-94
2023/05/10 04:55:46;;;;;;;122.68;41.33;;;14.10;99.90;;;;;;6280637;22;20000;-94
2023/05/10 04:58:11;;;;;;;126.55;41.80;;;14.10;99.90;;;;;;6281048;22;20003;-94
2023/05/10 05:00:37;;;;;;;119.03;39.10;;;14.10;99.90;;;;;;6254358;22;20000;-92
2023/05/10 05:03:03;;;;;;;109.68;38.83;;;14.10;99.90;;;;;;6255964;22;20026;-93
2023/05/10 05:05:29;;;;;;;101.93;36.97;;;14.10;99.90;;;;;;6228557;22;20011;-92
2023/05/10 05:07:56;;;;;;;165.73;41.90;;;14.10;99.90;;;;;;6253802;22;20077;-91
2023/05/10 05:10:21;;;;;;;143.25;41.80;;;14.10;99.90;;;;;;6279093;22;20004;-93
2023/05/10 05:12:47;;;;;;;125.30;41.13;;;14.20;99.90;;;;;;6253858;22;20015;-93
2023/05/10 05:15:16;;;;;;;102.57;37.35;;;14.20;99.90;;;;;;6279931;22;20007;-91
2023/05/10 05:17:43;;;;;;;128.38;42.15;;;14.20;99.90;;;;;;6253808;22;20065;-92
2023/05/10 05:20:09;;;;;;;111.15;39.10;;;14.20;99.90;;;;;;6284797;22;20039;-92
2023/05/10 05:22:37;;;;;;;138.65;42.05;;;14.10;99.90;;;;;;6251702;23;20110;-92
2023/05/10 05:25:03;;;;;;;126.45;40.25;;;14.20;99.90;;;;;;6201495;23;20005;-91
2023/05/10 05:27:31;;;;;;;120.05;41.78;;;14.20;99.90;;;;;;6257177;22;20057;-93
2023/05/10 05:29:57;;;;;;;119.70;39.22;;;14.20;99.90;;;;;;6257441;22;20149;-92
2023/05/10 05:32:26;;;;;;;138.30;39.60;;;14.20;99.90;;;;;;6282981;22;20039;-92
2023/05/10 05:34:51;;;;;;;108.55;37.03;;;14.20;99.90;;;;;;6282170;22;20031;-91
2023/05/10 05:37:22;;;;;;;112.68;39.40;;;14.20;99.90;;;;;;6285943;22;19996;-93
2023/05/10 05:39:48;;;;;;;135.45;40.38;;;14.20;99.90;;;;;;6316700;22;20003;-94
2023/05/10 05:42:16;;;;;;;108.43;37.38;;;14.20;99.90;;;;;;6316413;22;19995;-93
2023/05/10 05:44:42;;;;;;;112.93;38.40;;;14.20;99.90;;;;;;6316319;22;20006;-94
2023/05/10 05:47:07;;;;;;;113.45;38.65;;;14.20;99.90;;;;;;6293351;22;20011;-92
2023/05/10 05:49:33;;;;;;;132.00;40.47;;;14.20;99.90;;;;;;6265451;22;20011;-92
2023/05/10 05:52:03;;;;;;;123.07;38.17;;;14.20;99.90;;;;;;6290188;22;20011;-91
2023/05/10 05:54:30;;;;;;;117.47;38.13;;;14.20;99.90;;;;;;6316051;22;20013;-93
2023/05/10 05:57:00;;;;;;;114.90;38.13;;;14.20;99.90;;;;;;6289310;22;20368;-94
2023/05/10 05:59:26;;;;;;;114.75;39.92;;;14.20;99.90;;;;;;6315191;22;20333;-93
2023/05/10 06:01:52;;;;;;;121.03;38.22;;;14.20;99.90;;;;;;6315824;22;19998;-93
2023/05/10 06:04:19;;;;;;;117.72;40.38;;;14.20;99.90;;;;;;6291032;22;20418;-92
2023/05/10 06:06:45;;;;;;;115.10;38.17;;;14.20;99.90;;;;;;6290174;22;20026;-93
2023/05/10 06:09:12;;;;;;;115.53;39.90;;;14.30;99.90;;;;;;6316205;22;20006;-92
2023/05/10 06:11:38;;;;;;;119.78;39.42;;;14.30;99.90;;;;;;6315543;22;20010;-93
2023/05/10 06:14:04;;;;;;;153.80;42.60;;;14.30;99.90;;;;;;6315410;22;20044;-94
2023/05/10 06:16:31;;;;;;;103.03;37.55;;;14.20;99.90;;;;;;6316038;22;20005;-92
2023/05/10 06:18:56;;;;;;;116.55;37.55;;;14.30;99.90;;;;;;6315648;22;20010;-92
2023/05/10 06:21:22;;;;;;;118.13;38.08;;;14.30;99.90;;;;;;6289812;22;20027;-94
2023/05/10 06:23:51;;;;;;;132.60;41.88;;;14.30;99.90;;;;;;6315388;22;20026;-92
2023/05/10 06:26:17;;;;;;;141.73;42.60;;;14.30;99.90;;;;;;6289984;22;20011;-92
2023/05/10 06:28:43;;;;;;;121.75;41.50;;;14.30;99.90;;;;;;6315585;22;20002;-92
2023/05/10 06:31:08;;;;;;;139.57;42.72;;;14.30;99.90;;;;;;6315292;22;20007;-93
2023/05/10 06:33:35;;;;;;;119.93;39.78;;;14.30;99.90;;;;;;6314849;22;20006;-91
2023/05/10 06:36:00;;;;;;;117.43;42.13;;;14.30;99.90;;;;;;6315733;22;19999;-91
2023/05/10 06:38:26;;;;;;;130.82;42.63;;;14.30;99.90;;;;;;6290450;22;20011;-93
2023/05/10 06:40:52;;;;;;;118.32;40.80;;;14.30;99.90;;;;;;6314534;22;20026;-92
2023/05/10 06:43:18;;;;;;;129.07;43.88;;;14.30;99.90;;;;;;6290268;22;20421;-90
2023/05/10 06:45:44;;;;;;;137.93;40.22;;;14.30;99.90;;;;;;6264336;22;20006;-93
2023/05/10 06:48:09;;;;;;;117.07;40.78;;;14.40;99.90;;;;;;6264728;22;20010;-93
2023/05/10 06:50:35;;;;;;;129.35;43.50;;;14.40;99.90;;;;;;6269780;22;20078;-92
2023/05/10 06:53:04;;;;;;;126.55;41.90;;;14.40;99.90;;;;;;6319869;22;20038;-92
2023/05/10 06:55:30;;;;;;;116.35;40.00;;;14.30;99.90;;;;;;6267518;22;20010;-91
2023/05/10 06:57:57;;;;;;;120.65;42.15;;;14.30;99.90;;;;;;6242087;22;20338;-92
2023/05/10 07:07:27;;;;;;;132.48;44.85;;;14.30;99.90;;;;;;6344398;22;20063;-93
2023/05/10 07:09:53;;;;;;;109.55;41.88;;;14.30;99.90;;;;;;6314813;22;19995;-93
2023/05/10 07:12:19;;;;;;;126.03;43.00;;;14.30;99.90;;;;;;6339656;22;20010;-94
2023/05/10 07:14:45;;;;;;;132.00;46.67;;;14.30;99.90;;;;;;6289085;22;20030;-94
2023/05/10 07:17:11;;;;;;;135.48;45.75;;;14.30;99.90;;;;;;6263856;22;20367;-93
2023/05/10 07:19:37;;;;;;;130.52;45.42;;;14.30;99.90;;;;;;6289840;22;20086;-94
2023/05/10 07:22:03;;;;;;;123.70;44.80;;;14.30;99.90;;;;;;6315665;22;19999;-93
2023/05/10 07:24:28;;;;;;;133.07;48.03;;;14.30;99.90;;;;;;6289477;22;20003;-91
2023/05/10 07:26:54;;;;;;;156.98;48.35;;;14.30;99.90;;;;;;6290252;22;20306;-94
2023/05/10 07:29:20;;;;;;;161.82;50.28;;;14.30;99.90;;;;;;6315867;22;20060;-93
2023/05/10 07:31:46;;;;;;;157.85;51.28;;;14.20;99.90;;;;;;6264872;22;20006;-95
2023/05/10 07:34:12;;;;;;;167.70;53.38;;;14.20;99.90;;;;;;6315681;22;20028;-91
2023/05/10 07:36:37;;;;;;;161.35;50.92;;;14.30;99.90;;;;;;6289406;22;19999;-91
2023/05/10 07:39:04;;;;;;;163.57;49.22;;;14.30;99.90;;;;;;6298512;22;20079;-91
2023/05/10 07:41:30;;;;;;;147.95;47.50;;;14.30;99.90;;;;;;6326604;22;20015;-88
2023/05/10 07:43:56;;;;;;;159.60;48.03;;;14.30;99.90;;;;;;6274946;22;20002;-91
2023/05/10 07:46:22;;;;;;;159.98;50.17;;;14.30;99.90;;;;;;6263144;22;20006;-93
2023/05/10 07:48:50;;;;;;;163.25;51.63;;;14.30;99.90;;;;;;6263557;22;19999;-94
2023/05/10 07:51:16;;;;;;;180.48;49.38;;;14.40;99.90;;;;;;6316574;22;19999;-95
2023/05/10 07:53:45;;;;;;;168.65;49.20;;;14.40;99.90;;;;;;6264725;22;19999;-95
2023/05/10 07:56:23;;;;;;;152.63;47.53;;;14.40;99.90;;;;;;6290233;22;20003;-94
2023/05/10 07:58:49;;;;;;;155.60;47.53;;;14.40;99.90;;;;;;6316679;22;19999;-94
2023/05/10 08:01:15;;;;;;;129.02;43.85;;;14.40;99.90;;;;;;6290626;22;20035;-93
2023/05/10 08:03:40;;;;;;;176.55;47.15;;;14.40;99.90;;;;;;6290338;22;20003;-93
2023/05/10 08:06:06;;;;;;;138.35;44.80;;;14.40;99.90;;;;;;6290213;22;20003;-93
2023/05/10 08:08:32;;;;;;;155.85;47.33;;;14.50;99.90;;;;;;6289544;22;20010;-92
2023/05/10 08:10:57;;;;;;;165.15;49.40;;;14.50;99.90;;;;;;6263594;22;20014;-92
2023/05/10 08:13:23;;;;;;;158.60;46.03;;;14.50;99.90;;;;;;6263513;22;20003;-93
2023/05/10 08:15:49;;;;;;;155.75;46.60;;;14.60;99.90;;;;;;6315284;22;19998;-93
2023/05/10 08:18:15;;;;;;;132.63;44.17;;;14.60;99.90;;;;;;6264192;22;20033;-94
2023/05/10 08:20:40;;;;;;;135.23;43.97;;;14.60;99.90;;;;;;6264118;22;20112;-93
2023/05/10 08:23:06;;;;;;;149.10;47.80;;;14.60;99.90;;;;;;6316508;22;20002;-94
2023/05/10 08:25:32;;;;;;;136.18;46.10;;;14.60;99.90;;;;;;6283447;22;20094;-93
2023/05/10 08:27:58;;;;;;;122.90;40.75;;;14.60;99.90;;;;;;6293834;22;20056;-94
2023/05/10 08:30:24;;;;;;;120.75;42.67;;;14.70;99.90;;;;;;6290834;22;20014;-93
2023/05/10 08:32:49;;;;;;;126.07;42.42;;;14.70;99.90;;;;;;6290925;22;20330;-93
2023/05/10 08:35:16;;;;;;;107.15;39.50;;;14.70;99.90;;;;;;6291265;22;20010;-95
2023/05/10 08:37:41;;;;;;;113.53;41.15;;;14.70;99.90;;;;;;6315055;22;20045;-93
2023/05/10 08:40:11;;;;;;;98.25;38.55;;;14.70;99.90;;;;;;6290030;22;20003;-94
2023/05/10 08:42:40;;;;;;;109.22;37.90;;;14.70;99.90;;;;;;6315659;22;19994;-94
2023/05/10 08:45:07;;;;;;;104.60;36.85;;;14.70;99.90;;;;;;6314656;22;20037;-93
2023/05/10 08:47:37;;;;;;;102.00;34.25;;;14.70;99.90;;;;;;6314557;22;20007;-93
2023/05/10 08:50:04;;;;;;;79.68;30.60;;;14.70;99.90;;;;;;6314035;22;20009;-92
2023/05/10 08:52:32;;;;;;;86.75;30.17;;;14.80;99.90;;;;;;6287958;22;20003;-92
2023/05/10 08:54:58;;;;;;;75.78;28.63;;;14.70;99.90;;;;;;6289046;22;20006;-90
2023/05/10 08:57:24;;;;;;;63.83;25.42;;;14.80;99.90;;;;;;6315921;22;20087;-90
2023/05/10 08:59:50;;;;;;;69.13;26.88;;;14.70;99.90;;;;;;6331056;22;20026;-89
2023/05/10 09:02:18;;;;;;;64.93;25.90;;;14.70;99.90;;;;;;6323248;22;20463;-93
2023/05/10 09:04:44;;;;;;;64.70;26.35;;;14.70;99.90;;;;;;6318708;22;20010;-91
2023/05/10 09:07:11;;;;;;;58.20;23.88;;;14.80;99.90;;;;;;6318391;22;20003;-93
2023/05/10 09:09:37;;;;;;;44.83;20.88;;;14.80;99.90;;;;;;6318241;22;20003;-93
2023/05/10 09:12:03;;;;;;;43.28;19.42;;;14.90;99.90;;;;;;6318754;22;20007;-93
2023/05/10 09:14:30;;;;;;;41.03;18.10;;;14.90;99.90;;;;;;6290056;22;20053;-91
2023/05/10 09:16:56;;;;;;;31.52;15.18;;;14.90;99.90;;;;;;6290817;22;19999;-92
2023/05/10 09:19:22;;;;;;;33.22;15.23;;;14.90;99.90;;;;;;6290163;22;20003;-92
2023/05/10 09:21:49;;;;;;;31.10;15.45;;;14.90;99.90;;;;;;6290672;22;20436;-91
2023/05/10 09:24:15;;;;;;;32.50;15.95;;;14.90;99.90;;;;;;6322977;22;19999;-91
2023/05/10 09:26:49;;;;;;;32.03;15.43;;;14.90;99.90;;;;;;6333259;22;20521;-92
2023/05/10 09:29:15;;;;;;;29.05;14.82;;;15.00;99.90;;;;;;6322931;22;19995;-93
2023/05/10 09:31:47;;;;;;;23.92;13.77;;;14.90;99.90;;;;;;6317570;22;20055;-93
2023/05/10 09:34:39;;;;;;;24.00;12.82;;;15.00;99.90;;;;;;6316144;22;19999;-89
2023/05/10 09:37:05;;;;;;;26.75;14.40;;;15.00;99.90;;;;;;6320177;22;20002;-90
2023/05/10 09:39:36;;;;;;;26.30;12.75;;;15.10;99.90;;;;;;6301799;22;20060;-89
2023/05/10 09:42:04;;;;;;;20.83;11.93;;;15.10;99.90;;;;;;6285172;22;20019;-90
2023/05/10 09:44:32;;;;;;;19.45;11.45;;;15.20;99.90;;;;;;6280014;22;20007;-88
2023/05/10 09:46:58;;;;;;;22.70;12.43;;;15.30;99.90;;;;;;6283170;22;19996;-92
2023/05/10 09:49:27;;;;;;;20.67;11.70;;;15.30;99.90;;;;;;6263465;22;20000;-91
2023/05/10 09:52:19;;;;;;;21.02;11.57;;;15.30;99.90;;;;;;6296762;22;19995;-90
2023/05/10 09:54:57;;;;;;;21.92;11.45;;;15.40;99.90;;;;;;6267925;22;20068;-91
2023/05/10 09:57:26;;;;;;;19.85;10.38;;;15.40;99.90;;;;;;6286722;22;19995;-90
2023/05/10 09:59:54;;;;;;;19.08;10.48;;;15.40;99.90;;;;;;6253586;22;20008;-89
2023/05/10 10:02:19;;;;;;;20.40;11.60;;;15.40;99.90;;;;;;6279746;22;20025;-90
2023/05/10 10:04:49;;;;;;;18.63;10.38;;;15.40;99.90;;;;;;6280581;22;20075;-93
2023/05/10 10:07:21;;;;;;;21.45;10.88;;;15.40;99.90;;;;;;6281136;22;20003;-93
2023/05/10 10:09:47;;;;;;;16.77;10.13;;;15.50;99.90;;;;;;6279583;22;20381;-92
2023/05/10 10:12:13;;;;;;;15.75;9.57;;;15.40;99.90;;;;;;6254223;22;20012;-93
2023/05/10 10:14:39;;;;;;;15.23;9.82;;;15.40;99.90;;;;;;6280990;22;20034;-91
2023/05/10 10:17:05;;;;;;;19.95;11.02;;;15.40;99.90;;;;;;6256687;22;20000;-89
2023/05/10 10:19:34;;;;;;;19.02;11.30;;;15.40;99.90;;;;;;6230866;22;20091;-92
2023/05/10 10:22:00;;;;;;;19.13;10.93;;;15.40;99.90;;;;;;6258690;22;20026;-93
2023/05/10 10:24:26;;;;;;;19.65;11.05;;;15.50;99.90;;;;;;6281104;22;20003;-92
2023/05/10 10:26:57;;;;;;;20.35;10.30;;;15.40;99.90;;;;;;6280989;22;20000;-92
2023/05/10 10:29:25;;;;;;;;;;;15.40;99.90;;;;;;6280310;22;20041;-93
2023/05/10 10:32:20;;;;;;;15.85;10.32;;;15.50;99.90;;;;;;6279192;22;19907;-92
2023/05/10 10:34:46;;;;;;;22.55;11.85;;;15.40;99.90;;;;;;6279109;22;20004;-94
2023/05/10 10:37:12;;;;;;;20.08;11.02;;;15.50;99.90;;;;;;6280333;22;20004;-90
2023/05/10 10:39:39;;;;;;;2.38;1.38;;;15.40;99.90;;;;;;6231112;22;20019;-92
2023/05/10 10:42:06;;;;;;;0.00;0.00;;;15.40;99.90;;;;;;6253480;22;20023;-91
2023/05/10 10:44:36;;;;;;;1999.90;999.90;;;15.40;99.90;;;;;;6228755;22;20445;-90
2023/05/10 10:47:11;;;;;;;35.55;17.05;;;15.40;99.90;;;;;;6281236;22;20014;-89
2023/05/10 10:49:43;;;;;;;24.08;13.32;;;15.40;99.90;;;;;;6279088;22;20308;-89
2023/05/10 10:52:30;;;;;;;29.05;14.10;;;15.40;99.90;;;;;;6279485;22;20073;-91
2023/05/10 10:55:00;;;;;;;28.27;13.35;;;15.40;99.90;;;;;;6277118;22;20031;-91
2023/05/10 10:57:26;;;;;;;24.05;13.45;;;15.40;99.90;;;;;;6278426;22;20003;-91
2023/05/10 11:00:18;;;;;;;28.33;13.98;;;15.50;99.90;;;;;;6251697;22;20008;-91
2023/05/10 11:02:51;;;;;;;24.15;12.57;;;15.50;99.90;;;;;;6276977;22;20000;-92
2023/05/10 11:05:43;;;;;;;22.67;12.15;;;15.60;99.90;;;;;;6253693;22;20003;-92
2023/05/10 11:08:16;;;;;;;24.52;13.27;;;15.60;99.90;;;;;;6253536;22;20438;-93
2023/05/10 11:11:00;;;;;;;26.60;14.75;;;15.70;99.90;;;;;;6280926;22;20089;-93
2023/05/10 11:13:32;;;;;;;26.75;12.93;;;15.80;99.90;;;;;;6281885;22;20086;-90
2023/05/10 11:15:58;;;;;;;22.80;12.82;;;15.80;99.90;;;;;;6278070;22;20008;-90
2023/05/10 11:18:27;;;;;;;25.50;12.90;;;15.80;99.90;;;;;;6253502;22;20014;-92
2023/05/10 11:21:05;;;;;;;22.98;12.20;;;15.80;99.90;;;;;;6278155;22;20004;-92
2023/05/10 11:23:58;;;;;;;22.60;12.05;;;15.80;99.90;;;;;;6280623;22;20434;-92
2023/05/10 11:26:26;;;;;;;20.83;12.65;;;15.80;99.90;;;;;;6277947;22;20000;-93
2023/05/10 11:28:55;;;;;;;21.95;12.38;;;15.90;99.90;;;;;;6277267;22;20004;-93
2023/05/10 11:31:22;;;;;;;20.77;11.43;;;15.90;99.90;;;;;;6251599;22;20094;-93
2023/05/10 11:33:56;;;;;;;22.48;12.77;;;15.90;99.90;;;;;;6251675;22;20008;-93
2023/05/10 11:36:27;;;;;;;21.48;11.80;;;16.00;99.90;;;;;;6276627;22;20018;-93
2023/05/10 11:38:53;;;;;;;18.25;11.73;;;16.00;99.90;;;;;;6283055;22;20335;-93
2023/05/10 11:41:23;;;;;;;20.17;11.55;;;16.10;99.90;;;;;;6276852;22;20007;-93
2023/05/10 11:43:54;;;;;;;19.00;11.52;;;16.10;99.90;;;;;;6252329;22;20008;-90
2023/05/10 11:46:21;;;;;;;18.02;11.27;;;16.10;99.90;;;;;;6276992;22;20014;-91
2023/05/10 11:48:52;;;;;;;17.33;10.68;;;16.10;99.90;;;;;;6277628;22;20000;-90
2023/05/10 11:51:22;;;;;;;;;;;16.20;99.90;;;;;;6277411;22;20004;-90
2023/05/10 11:53:50;;;;;;;17.77;11.45;;;16.20;99.90;;;;;;6251919;22;19910;-91
2023/05/10 11:56:16;;;;;;;18.45;11.80;;;16.10;99.90;;;;;;6276499;22;20077;-90
2023/05/10 11:58:41;;;;;;;17.33;11.30;;;16.10;99.90;;;;;;6276742;22;20414;-90
2023/05/10 12:01:09;;;;;;;19.45;13.57;;;16.10;99.90;;;;;;6267656;22;20011;-93
2023/05/10 12:03:35;;;;;;;18.95;11.45;;;16.00;99.90;;;;;;6294610;22;20003;-94
2023/05/10 12:06:02;;;;;;;16.15;11.52;;;16.10;99.90;;;;;;6268639;22;20071;-93
2023/05/10 12:08:29;;;;;;;19.98;12.60;;;16.10;99.90;;;;;;6272209;22;20004;-94
2023/05/10 12:11:06;;;;;;;18.17;13.02;;;16.20;99.90;;;;;;6295369;22;20078;-93
2023/05/10 12:13:32;;;;;;;17.63;12.25;;;16.20;99.90;;;;;;6292373;22;20000;-94
2023/05/10 12:15:58;;;;;;;19.05;12.48;;;16.30;99.90;;;;;;6266244;22;20284;-93
2023/05/10 12:18:25;;;;;;;19.23;11.82;;;16.40;99.90;;;;;;6251303;22;20004;-92
2023/05/10 12:20:55;;;;;;;16.77;11.13;;;16.40;99.90;;;;;;6276785;22;20022;-93
2023/05/10 12:23:21;;;;;;;15.60;10.07;;;16.50;99.90;;;;;;6277828;22;20050;-93
2023/05/10 12:25:47;;;;;;;13.95;9.20;;;16.50;99.90;;;;;;6251445;22;20419;-92
2023/05/10 12:28:12;;;;;;;12.35;8.98;;;16.50;99.90;;;;;;6252845;22;20012;-92
2023/05/10 12:30:39;;;;;;;12.88;8.60;;;16.60;99.90;;;;;;6252723;22;20004;-93
2023/05/10 12:33:14;;;;;;;15.45;9.48;;;16.60;99.90;;;;;;6228577;22;20031;-89
2023/05/10 12:35:59;;;;;;;12.85;9.02;;;16.70;99.90;;;;;;6253600;22;20018;-90
2023/05/10 12:38:28;;;;;;;15.65;9.88;;;16.70;99.90;;;;;;6261345;22;20018;-89